»·PEaware :: DCM206 KLAS-KSAN

DCM206 :: KLAS-KSAN

FLIGHT INFORMATION

Flight Status: Arrived
Operator:
DotCom
More flights by this operator :: More flights under this callsign
Pilot: Nick L. (7253)
Aircraft: BOEING 737-800
(B738)
More flights by this aircraft type
Origin: KLAS Harry Reid Intl
United States
Destination: KSAN San Diego Intl-Lindbergh
United States
More flights between these airports :: More routes between these airports
Route: BOACH8 LVELL LUCKI1
File this flight plan on PilotEdge
Remarks: RMK / SIMBRIEF
Altitude:
(Current/Filed)
32,000ft
Speed:
(Current/Filed)
431kts
Departed: 13-Feb-21 01:30 PM
Arrived: 13-Feb-21 02:31 PM
Distance/Time
Traveled:
225nm/1:01
Distance/Time
To Go:
Arrived

Flight Plot

Page will automatically refresh every two minutes.

Flight plan parsing failed; only flown route is shown


Map Options




Map Legend


Flown Route
Filed Route
Departure Airport
Arrival Airport
Navaid (VOR, NDB)
Fix

Horizontal Profiles

Position Reports

Time Latitude Longitude Heading Altitude Ground
Speed
13-Feb-21 13:08 36.082659 -115.170149 89 2188ft 0kts
13-Feb-21 13:09 36.082659 -115.170149 89 2188ft 0kts
13-Feb-21 13:11 36.082659 -115.170149 89 2188ft 0kts
13-Feb-21 13:12 36.082659 -115.170149 89 2188ft 0kts
13-Feb-21 13:13 36.082659 -115.170149 89 2188ft 0kts
13-Feb-21 13:14 36.082659 -115.170149 89 2188ft 0kts
13-Feb-21 13:15 36.082659 -115.170149 89 2188ft 0kts
13-Feb-21 13:16 36.082659 -115.170149 89 2188ft 0kts
13-Feb-21 13:17 36.082659 -115.170149 89 2188ft 0kts
13-Feb-21 13:18 36.082659 -115.170149 89 2188ft 0kts
13-Feb-21 13:19 36.082659 -115.170149 89 2188ft 0kts
13-Feb-21 13:20 36.082659 -115.170149 88 2188ft 0kts
13-Feb-21 13:21 36.082659 -115.170149 89 2188ft 0kts
13-Feb-21 13:22 36.082659 -115.170149 89 2188ft 0kts
13-Feb-21 13:23 36.082659 -115.170149 89 2188ft 0kts
13-Feb-21 13:24 36.082665 -115.169756 89 2188ft 6kts
13-Feb-21 13:24 36.084262 -115.168319 22 2188ft 13kts
13-Feb-21 13:25 36.087060 -115.166047 24 2188ft 11kts
13-Feb-21 13:27 36.091526 -115.163523 25 2188ft 15kts
13-Feb-21 13:28 36.095278 -115.161388 25 2188ft 15kts
13-Feb-21 13:28 36.099169 -115.159125 27 2188ft 14kts
13-Feb-21 13:30 36.097341 -115.157779 205 2188ft 60kts
13-Feb-21 13:30 36.066173 -115.176228 209 3090ft 192kts
13-Feb-21 13:31 36.012082 -115.216006 230 4958ft 270kts
13-Feb-21 13:32 35.965548 -115.291721 214 8436ft 292kts
13-Feb-21 13:33 35.883464 -115.312384 187 10922ft 339kts
13-Feb-21 13:34 35.779938 -115.306504 177 12906ft 388kts
13-Feb-21 13:35 35.669843 -115.295142 183 15435ft 406kts
13-Feb-21 13:36 35.555466 -115.299538 186 17769ft 422kts
13-Feb-21 13:37 35.435874 -115.304359 186 18751ft 430kts
13-Feb-21 13:38 35.314666 -115.309202 187 20801ft 445kts
13-Feb-21 13:39 35.189057 -115.314180 188 22655ft 459kts
13-Feb-21 13:40 35.059924 -115.319335 189 24332ft 472kts
13-Feb-21 13:41 34.927053 -115.324581 191 25943ft 483kts
13-Feb-21 13:42 34.794359 -115.340835 203 27311ft 477kts
13-Feb-21 13:43 34.667743 -115.384588 210 28774ft 471kts
13-Feb-21 13:44 34.544989 -115.435571 213 30491ft 464kts
13-Feb-21 13:45 34.424305 -115.487501 213 31871ft 462kts
13-Feb-21 13:46 34.307231 -115.549675 223 31872ft 456kts
13-Feb-21 13:47 34.193651 -115.618818 216 31874ft 464kts
13-Feb-21 13:48 34.074563 -115.678029 215 31872ft 467kts
13-Feb-21 13:49 33.954522 -115.735479 215 31849ft 460kts
13-Feb-21 13:50 33.836247 -115.792967 216 31836ft 461kts
13-Feb-21 13:51 33.718450 -115.849885 214 30231ft 450kts
13-Feb-21 13:52 33.604714 -115.902868 214 27785ft 433kts
13-Feb-21 13:53 33.510154 -115.974271 236 25833ft 379kts
13-Feb-21 13:54 33.444010 -116.070607 244 24398ft 364kts
13-Feb-21 13:55 33.386918 -116.166189 244 22352ft 345kts
13-Feb-21 13:56 33.324787 -116.254329 226 20288ft 373kts
13-Feb-21 13:57 33.232379 -116.311999 215 18044ft 371kts
13-Feb-21 13:58 33.141469 -116.364989 214 15925ft 357kts
13-Feb-21 13:59 33.054063 -116.416043 214 13855ft 345kts
13-Feb-21 14:00 32.978155 -116.471679 228 12638ft 305kts
13-Feb-21 14:01 32.914499 -116.536226 228 10966ft 297kts
13-Feb-21 14:02 32.854637 -116.596474 228 10159ft 264kts
13-Feb-21 14:03 32.799860 -116.651678 227 9022ft 255kts
13-Feb-21 14:04 32.753649 -116.719991 245 7705ft 243kts
13-Feb-21 14:05 32.722112 -116.788785 240 6511ft 218kts
13-Feb-21 14:06 32.697053 -116.850948 249 5337ft 206kts
13-Feb-21 14:07 32.679360 -116.909956 251 5016ft 184kts
13-Feb-21 14:08 32.680200 -116.970201 284 4062ft 185kts
13-Feb-21 14:09 32.694768 -117.029363 285 2896ft 181kts
13-Feb-21 14:10 32.707328 -117.081293 286 1898ft 160kts
13-Feb-21 14:11 32.718989 -117.129475 286 946ft 147kts
13-Feb-21 14:12 32.730855 -117.176052 287 1213ft 158kts
13-Feb-21 14:13 32.743790 -117.231131 282 1967ft 205kts
13-Feb-21 14:14 32.759788 -117.298125 283 1998ft 210kts
13-Feb-21 14:15 32.800797 -117.351837 321 4318ft 244kts
13-Feb-21 14:16 32.857117 -117.397398 321 4995ft 242kts
13-Feb-21 14:17 32.912737 -117.442270 321 4986ft 240kts
13-Feb-21 14:18 32.975210 -117.433863 50 4980ft 265kts
13-Feb-21 14:19 32.975094 -117.349873 111 4980ft 266kts
13-Feb-21 14:20 32.951162 -117.267278 111 4985ft 262kts
13-Feb-21 14:21 32.928300 -117.185358 111 4986ft 259kts
13-Feb-21 14:22 32.906405 -117.105222 114 4865ft 236kts
13-Feb-21 14:23 32.868634 -117.049065 152 3483ft 210kts
13-Feb-21 14:24 32.814503 -117.021089 170 3231ft 207kts
13-Feb-21 14:25 32.761679 -117.021384 188 2762ft 190kts
13-Feb-21 14:26 32.714602 -117.030618 212 2529ft 157kts
13-Feb-21 14:27 32.706086 -117.077080 286 1947ft 145kts
13-Feb-21 14:28 32.717312 -117.122675 286 1188ft 145kts
13-Feb-21 14:29 32.728422 -117.168199 285 340ft 143kts
13-Feb-21 14:30 32.736075 -117.200035 285 24ft 34kts
13-Feb-21 14:31 32.735630 -117.202159 193 24ft 0kts
13-Feb-21 14:32 32.734885 -117.202630 230 23ft 5kts

Navigation Log

Ident Type
Flight plan parsing failed, navigation log unavailable